Time;durP1;ratioP1;P1;durP2;ratioP2;P2;SDS_P1;SDS_P2;PMS_P1;PMS_P2;Temp;Humidity;BMP_temperature;BMP_pressure;BME280_temperature;BME280_humidity;BME280_pressure;Samples;Min_cycle;Max_cycle;Signal;HPM_P1;HPM_P2
2022/05/08 00:02:22;;;;;;;13.10;11.50;;;19.90;50.10;;;;;;5048962;28;20672;-45
2022/05/08 00:04:51;;;;;;;15.30;12.23;;;19.90;50.60;;;;;;5052599;28;20494;-44
2022/05/08 00:07:18;;;;;;;14.87;12.43;;;19.90;49.90;;;;;;5051209;28;20219;-45
2022/05/08 00:09:44;;;;;;;11.57;10.67;;;19.90;50.10;;;;;;5047130;28;20516;-45
2022/05/08 00:12:13;;;;;;;12.33;11.23;;;19.90;50.20;;;;;;5056035;28;20493;-47
2022/05/08 00:14:42;;;;;;;13.27;11.90;;;19.70;50.20;;;;;;5048655;28;20453;-48
2022/05/08 00:17:14;;;;;;;12.67;11.47;;;19.70;50.50;;;;;;5051626;28;20453;-46
2022/05/08 00:19:44;;;;;;;14.83;11.80;;;19.50;51.50;;;;;;5047257;28;20450;-44
2022/05/08 00:22:11;;;;;;;14.87;12.30;;;19.30;51.20;;;;;;5054166;28;20859;-46
2022/05/08 00:24:37;;;;;;;13.87;12.67;;;19.10;51.70;;;;;;5057331;28;20540;-45
2022/05/08 00:27:03;;;;;;;12.80;11.70;;;19.10;51.50;;;;;;5049971;28;20945;-44
2022/05/08 00:29:29;;;;;;;12.60;11.60;;;19.10;51.60;;;;;;5049613;28;20435;-44
2022/05/08 00:31:55;;;;;;;12.50;11.47;;;19.00;51.50;;;;;;5049504;28;20449;-44
2022/05/08 00:34:21;;;;;;;13.53;12.23;;;19.10;51.50;;;;;;5064482;28;20211;-46
2022/05/08 00:36:47;;;;;;;13.40;12.20;;;19.10;51.70;;;;;;5051826;28;20444;-45
2022/05/08 00:39:13;;;;;;;12.83;11.70;;;19.10;51.70;;;;;;5054383;28;20434;-46
2022/05/08 00:41:39;;;;;;;12.50;11.40;;;19.00;51.70;;;;;;5051699;28;20201;-45
2022/05/08 00:44:05;;;;;;;12.37;11.33;;;19.00;51.60;;;;;;5048249;28;20922;-46
2022/05/08 00:46:30;;;;;;;13.83;12.63;;;19.00;51.70;;;;;;5055145;28;20199;-43
2022/05/08 00:48:57;;;;;;;13.50;11.63;;;19.10;51.50;;;;;;5061249;28;22151;-45
2022/05/08 00:51:24;;;;;;;13.27;12.10;;;19.20;51.30;;;;;;5057339;28;20216;-44
2022/05/08 00:53:54;;;;;;;12.93;11.93;;;19.20;51.20;;;;;;5053578;28;20489;-44
2022/05/08 00:56:20;;;;;;;13.00;11.70;;;19.10;51.50;;;;;;5050437;28;20841;-45
2022/05/08 00:58:48;;;;;;;13.23;11.93;;;19.10;51.40;;;;;;5053458;28;20561;-46
2022/05/08 01:01:14;;;;;;;13.93;12.67;;;19.10;51.20;;;;;;5053111;28;20523;-45
2022/05/08 01:03:41;;;;;;;13.80;12.40;;;19.10;51.00;;;;;;5050762;28;20450;-47
2022/05/08 01:06:09;;;;;;;11.37;10.47;;;19.00;51.80;;;;;;5055286;28;20875;-45
2022/05/08 01:08:39;;;;;;;13.50;12.07;;;19.00;51.40;;;;;;5058348;28;20516;-45
2022/05/08 01:11:06;;;;;;;12.93;11.77;;;19.00;51.60;;;;;;5064076;28;20961;-45
2022/05/08 01:13:32;;;;;;;12.83;11.63;;;19.00;51.30;;;;;;5061838;28;20485;-45
2022/05/08 01:15:57;;;;;;;13.20;12.10;;;19.00;51.30;;;;;;5063334;28;20439;-45
2022/05/08 01:18:24;;;;;;;13.53;12.33;;;19.00;51.10;;;;;;5054624;28;20374;-48
2022/05/08 01:20:50;;;;;;;12.20;11.20;;;18.90;50.80;;;;;;5061953;28;20253;-45
2022/05/08 01:23:16;;;;;;;12.77;11.53;;;18.90;51.00;;;;;;5065494;28;20449;-45
2022/05/08 01:25:49;;;;;;;12.90;11.90;;;18.90;51.20;;;;;;5050169;28;21139;-45
2022/05/08 01:28:15;;;;;;;13.43;12.33;;;18.90;51.10;;;;;;5055826;28;20460;-45
2022/05/08 01:30:46;;;;;;;14.23;12.60;;;18.90;50.90;;;;;;5052168;28;21131;-45
2022/05/08 01:33:12;;;;;;;13.07;11.90;;;18.90;51.10;;;;;;5063247;28;20543;-46
2022/05/08 01:35:38;;;;;;;12.80;11.60;;;18.80;51.40;;;;;;5051836;28;20435;-44
2022/05/08 01:38:05;;;;;;;13.20;12.00;;;18.80;51.50;;;;;;5053587;28;20443;-46
2022/05/08 01:40:31;;;;;;;12.50;11.40;;;18.80;51.60;;;;;;5055137;28;20443;-45
2022/05/08 01:42:58;;;;;;;11.77;10.77;;;18.70;51.50;;;;;;5053512;28;21131;-46
2022/05/08 01:45:23;;;;;;;12.67;11.57;;;18.60;51.90;;;;;;5056843;28;20447;-43
2022/05/08 01:50:34;;;;;;;13.47;12.27;;;18.50;52.20;;;;;;5056443;28;20217;-46
2022/05/08 01:53:00;;;;;;;12.93;11.93;;;18.50;52.50;;;;;;5050329;28;20486;-47
2022/05/08 01:55:26;;;;;;;11.70;10.70;;;18.50;52.20;;;;;;5067252;28;20196;-46
2022/05/08 01:57:53;;;;;;;14.27;12.87;;;18.30;52.50;;;;;;5077739;28;20253;-48
2022/05/08 02:00:20;;;;;;;12.53;11.30;;;18.10;53.20;;;;;;5066081;28;20204;-46
2022/05/08 02:02:48;;;;;;;11.90;10.70;;;18.10;53.40;;;;;;5071873;28;20524;-47
2022/05/08 02:05:15;;;;;;;12.03;11.03;;;18.00;53.30;;;;;;5068848;28;20856;-47
2022/05/08 02:07:42;;;;;;;11.67;10.70;;;18.00;53.50;;;;;;5068948;28;20431;-46
2022/05/08 02:10:08;;;;;;;12.63;11.50;;;18.00;53.80;;;;;;5070952;28;20778;-47
2022/05/08 02:12:34;;;;;;;11.57;10.67;;;18.10;53.20;;;;;;5071210;28;20474;-48
2022/05/08 02:14:59;;;;;;;12.40;11.30;;;18.10;53.10;;;;;;5070576;28;20283;-44
2022/05/08 02:17:25;;;;;;;11.93;10.80;;;18.10;53.40;;;;;;5063384;28;20628;-47
2022/05/08 02:19:51;;;;;;;15.10;11.20;;;18.00;53.40;;;;;;5064819;28;20200;-48
2022/05/08 02:22:16;;;;;;;12.97;11.83;;;18.10;53.20;;;;;;5071597;28;20192;-46
2022/05/08 02:24:42;;;;;;;13.07;11.83;;;18.10;53.10;;;;;;5061039;28;20208;-46
2022/05/08 02:27:07;;;;;;;13.70;12.47;;;17.60;53.70;;;;;;5071327;28;20210;-45
2022/05/08 02:29:33;;;;;;;13.03;11.73;;;17.50;54.70;;;;;;5070076;28;20230;-47
2022/05/08 02:31:58;;;;;;;13.10;11.90;;;17.50;54.80;;;;;;5071073;28;20258;-44
2022/05/08 02:34:24;;;;;;;12.43;11.47;;;17.70;54.60;;;;;;5065029;28;20224;-47
2022/05/08 02:36:50;;;;;;;11.97;10.97;;;17.90;53.80;;;;;;5070959;28;20192;-45
2022/05/08 02:39:15;;;;;;;13.07;11.97;;;18.00;53.40;;;;;;5067864;28;20188;-45
2022/05/08 02:41:41;;;;;;;12.17;10.97;;;18.00;53.30;;;;;;5056791;28;20245;-47
2022/05/08 02:44:06;;;;;;;13.40;12.10;;;17.90;53.80;;;;;;5069964;28;20203;-49
2022/05/08 02:46:32;;;;;;;12.10;11.10;;;17.90;53.80;;;;;;5061642;28;20320;-45
2022/05/08 02:48:57;;;;;;;12.07;10.97;;;17.90;53.80;;;;;;5057133;28;20196;-46
2022/05/08 02:51:23;;;;;;;13.70;12.40;;;17.90;53.60;;;;;;5064110;28;20196;-45
2022/05/08 02:53:48;;;;;;;12.70;11.57;;;17.60;54.00;;;;;;5060939;28;20255;-44
2022/05/08 02:58:58;;;;;;;14.33;11.83;;;17.00;56.00;;;;;;5057836;28;20226;-45
2022/05/08 03:01:24;;;;;;;12.70;11.50;;;17.10;55.60;;;;;;5058576;28;20905;-44
2022/05/08 03:03:49;;;;;;;13.67;12.10;;;17.30;55.30;;;;;;5058790;28;20274;-44
2022/05/08 03:06:15;;;;;;;13.47;12.07;;;17.30;55.20;;;;;;5056765;28;20196;-45
2022/05/08 03:08:40;;;;;;;12.13;11.03;;;17.40;55.10;;;;;;5065914;28;20226;-47
2022/05/08 03:13:50;;;;;;;12.40;11.40;;;17.40;54.90;;;;;;5053223;28;20709;-47
2022/05/08 03:16:17;;;;;;;14.67;12.27;;;17.40;54.40;;;;;;5062721;28;20474;-48
2022/05/08 03:18:44;;;;;;;13.30;12.13;;;17.40;54.40;;;;;;5055228;28;20204;-44
2022/05/08 03:21:12;;;;;;;16.80;11.63;;;17.40;54.20;;;;;;5048835;28;20453;-45
2022/05/08 03:23:38;;;;;;;12.30;11.30;;;17.30;54.90;;;;;;5043025;28;20588;-44
2022/05/08 03:26:04;;;;;;;14.90;12.93;;;17.30;54.60;;;;;;5052648;28;20439;-48
2022/05/08 03:28:31;;;;;;;13.27;12.10;;;17.40;54.50;;;;;;5048742;28;20450;-44
2022/05/08 03:30:59;;;;;;;12.63;11.43;;;17.50;54.20;;;;;;5048918;28;20451;-44
2022/05/08 03:33:25;;;;;;;12.60;11.50;;;17.40;54.70;;;;;;5049392;28;20857;-45
2022/05/08 03:35:50;;;;;;;11.93;10.83;;;17.40;54.80;;;;;;5059134;28;20502;-44
2022/05/08 03:38:18;;;;;;;12.30;11.30;;;17.40;54.80;;;;;;5047222;28;21005;-47
2022/05/08 03:40:43;;;;;;;13.43;12.23;;;17.40;54.40;;;;;;5047852;28;20218;-44
2022/05/08 03:43:09;;;;;;;12.90;11.67;;;17.50;53.90;;;;;;5054122;28;20938;-43
2022/05/08 03:45:35;;;;;;;14.27;12.80;;;17.50;53.60;;;;;;5053037;28;20199;-44
2022/05/08 03:48:01;;;;;;;12.23;11.20;;;17.40;53.60;;;;;;5056465;28;20197;-48
2022/05/08 03:50:28;;;;;;;14.20;13.10;;;17.40;53.90;;;;;;5061204;28;20313;-44
2022/05/08 03:52:54;;;;;;;14.50;13.20;;;17.30;53.90;;;;;;5050769;28;20489;-49
2022/05/08 03:55:19;;;;;;;14.10;12.97;;;17.20;54.10;;;;;;5051120;28;20447;-45
2022/05/08 03:57:45;;;;;;;13.33;12.00;;;17.10;54.30;;;;;;5056492;28;20807;-49
2022/05/08 04:00:12;;;;;;;13.80;12.50;;;17.00;55.10;;;;;;5048828;28;20270;-44
2022/05/08 04:02:39;;;;;;;12.90;11.80;;;16.90;55.40;;;;;;5063055;28;20393;-48
2022/05/08 04:05:05;;;;;;;12.50;11.30;;;16.80;55.40;;;;;;5052834;28;20950;-44
2022/05/08 04:07:31;;;;;;;12.30;11.30;;;16.80;55.60;;;;;;5054587;28;20957;-44
2022/05/08 04:09:56;;;;;;;12.97;11.97;;;17.00;56.20;;;;;;5048678;28;20499;-44
2022/05/08 04:12:22;;;;;;;13.87;12.47;;;17.10;55.40;;;;;;5058604;28;20568;-45
2022/05/08 04:14:48;;;;;;;13.07;11.77;;;17.10;55.00;;;;;;5059562;28;20608;-44
2022/05/08 04:17:13;;;;;;;13.80;12.70;;;17.20;54.80;;;;;;5050683;28;20191;-47
2022/05/08 04:19:39;;;;;;;12.90;11.77;;;17.10;54.70;;;;;;5056251;28;20184;-44
2022/05/08 04:24:49;;;;;;;13.20;11.80;;;17.30;54.60;;;;;;5051920;28;20210;-46
2022/05/08 04:27:14;;;;;;;13.80;12.53;;;17.30;54.40;;;;;;5064991;28;20529;-44
2022/05/08 04:29:40;;;;;;;12.17;11.07;;;17.30;54.30;;;;;;5056969;28;20556;-44
2022/05/08 04:32:06;;;;;;;12.97;11.80;;;17.30;54.40;;;;;;5050218;28;20306;-44
2022/05/08 04:34:31;;;;;;;12.70;11.80;;;17.10;54.60;;;;;;5050154;28;20196;-44
2022/05/08 04:36:57;;;;;;;11.83;10.87;;;17.10;54.80;;;;;;5054766;28;20202;-47
2022/05/08 04:39:22;;;;;;;13.00;11.80;;;17.20;54.60;;;;;;5059009;28;20266;-47
2022/05/08 04:41:48;;;;;;;12.50;11.40;;;17.40;54.10;;;;;;5055892;28;20242;-46
2022/05/08 04:44:13;;;;;;;12.30;11.23;;;17.40;53.80;;;;;;5054515;28;20658;-45
2022/05/08 04:46:39;;;;;;;12.00;10.90;;;17.50;53.60;;;;;;5058783;28;20809;-43
2022/05/08 04:49:05;;;;;;;12.70;11.40;;;17.40;53.40;;;;;;5064960;28;20200;-44
2022/05/08 04:51:31;;;;;;;13.27;12.00;;;17.50;53.60;;;;;;5053407;28;20187;-46
2022/05/08 04:53:56;;;;;;;12.03;11.03;;;17.50;53.70;;;;;;5068226;28;20675;-46
2022/05/08 04:56:22;;;;;;;13.03;12.03;;;17.50;53.70;;;;;;5052303;28;20495;-46
2022/05/08 04:58:48;;;;;;;11.57;10.57;;;17.60;53.50;;;;;;5055133;28;20211;-43
2022/05/08 05:01:14;;;;;;;12.50;11.50;;;17.60;53.60;;;;;;5075117;28;20242;-45
2022/05/08 05:03:41;;;;;;;13.30;12.17;;;17.70;53.40;;;;;;5059569;28;20446;-44
2022/05/08 05:06:07;;;;;;;12.00;11.00;;;17.80;53.00;;;;;;5071366;28;20644;-43
2022/05/08 05:08:33;;;;;;;11.20;10.20;;;17.80;52.70;;;;;;5069515;28;21090;-45
2022/05/08 05:10:59;;;;;;;12.20;11.10;;;17.90;53.20;;;;;;5070822;28;20523;-45
2022/05/08 05:13:25;;;;;;;12.87;11.57;;;17.90;53.00;;;;;;5069920;28;20228;-44
2022/05/08 05:15:51;;;;;;;11.63;10.53;;;17.90;52.60;;;;;;5056958;28;20200;-44
2022/05/08 05:18:17;;;;;;;12.40;11.30;;;18.00;53.40;;;;;;5055505;28;20518;-47
2022/05/08 05:20:45;;;;;;;11.30;10.40;;;18.00;52.70;;;;;;5054626;28;20524;-47
2022/05/08 05:23:11;;;;;;;14.33;11.07;;;18.00;52.70;;;;;;5055856;28;20210;-47
2022/05/08 05:25:36;;;;;;;11.77;10.57;;;17.80;52.90;;;;;;5058655;28;20925;-49
2022/05/08 05:28:02;;;;;;;12.90;11.67;;;17.80;52.90;;;;;;5051099;28;20609;-46
2022/05/08 05:30:27;;;;;;;18.40;12.00;;;17.90;52.70;;;;;;5062741;28;20195;-45
2022/05/08 05:32:53;;;;;;;12.63;11.50;;;17.80;52.40;;;;;;5056402;28;20227;-45
2022/05/08 05:35:19;;;;;;;11.97;10.97;;;17.80;52.20;;;;;;5068221;28;20192;-45
2022/05/08 05:37:44;;;;;;;12.43;10.97;;;17.80;52.30;;;;;;5061774;28;20203;-47
2022/05/08 05:40:11;;;;;;;11.17;10.37;;;17.80;52.50;;;;;;5052344;28;20238;-45
2022/05/08 05:42:36;;;;;;;13.03;11.50;;;17.80;52.50;;;;;;5063066;28;20200;-48
2022/05/08 05:45:03;;;;;;;12.60;11.50;;;17.80;52.40;;;;;;5056067;28;20438;-45
2022/05/08 05:50:12;;;;;;;12.13;11.23;;;17.70;52.60;;;;;;5057978;28;20454;-46
2022/05/08 05:52:38;;;;;;;11.83;10.73;;;17.60;52.80;;;;;;5069325;28;20478;-47
2022/05/08 05:55:06;;;;;;;13.23;11.60;;;17.60;53.00;;;;;;5069243;28;20294;-46
2022/05/08 05:57:32;;;;;;;12.80;11.60;;;17.50;53.40;;;;;;5056793;28;20211;-47
2022/05/08 05:59:58;;;;;;;12.77;11.67;;;17.20;54.00;;;;;;5062490;28;20584;-45
2022/05/08 06:02:24;;;;;;;12.33;11.33;;;17.30;53.90;;;;;;5067075;28;20556;-44
2022/05/08 06:04:49;;;;;;;12.87;11.60;;;17.40;53.80;;;;;;5058467;28;20191;-43
2022/05/08 06:07:15;;;;;;;13.43;12.13;;;17.50;53.80;;;;;;5067270;28;20195;-43
2022/05/08 06:09:40;;;;;;;12.10;11.10;;;17.50;53.70;;;;;;5071025;28;20560;-45
2022/05/08 06:12:06;;;;;;;12.53;11.53;;;17.60;53.50;;;;;;5065730;28;20216;-47
2022/05/08 06:14:32;;;;;;;13.23;12.13;;;17.60;53.50;;;;;;5077732;28;20224;-46
2022/05/08 06:16:58;;;;;;;13.87;12.67;;;17.60;53.50;;;;;;5066698;28;20199;-45
2022/05/08 06:19:23;;;;;;;12.00;10.97;;;17.60;53.60;;;;;;5063641;28;20200;-47
2022/05/08 06:21:49;;;;;;;17.77;12.80;;;17.50;53.90;;;;;;5064018;28;20442;-45
2022/05/08 06:24:15;;;;;;;12.40;11.40;;;17.50;54.20;;;;;;5061502;28;20314;-45
2022/05/08 06:26:40;;;;;;;14.37;13.17;;;17.60;54.10;;;;;;5069959;28;20217;-45
2022/05/08 06:29:06;;;;;;;13.37;12.17;;;17.60;53.80;;;;;;5058383;28;20187;-45
2022/05/08 06:31:31;;;;;;;13.37;12.17;;;17.70;54.00;;;;;;5057943;28;20192;-44
2022/05/08 06:33:57;;;;;;;13.27;12.17;;;17.70;54.10;;;;;;5057115;28;20238;-45
2022/05/08 06:36:24;;;;;;;13.37;12.17;;;17.80;54.00;;;;;;5051976;28;20267;-43
2022/05/08 06:38:49;;;;;;;12.27;11.20;;;17.90;54.10;;;;;;5066690;28;20196;-45
2022/05/08 06:41:15;;;;;;;12.47;11.27;;;17.90;54.00;;;;;;5066860;28;20914;-46
2022/05/08 06:43:41;;;;;;;14.97;13.57;;;18.00;54.00;;;;;;5069741;28;20219;-45
2022/05/08 06:46:08;;;;;;;14.33;12.60;;;18.00;54.10;;;;;;5068784;28;20208;-44
2022/05/08 06:48:34;;;;;;;14.57;13.27;;;18.20;54.10;;;;;;5070956;28;20271;-45
2022/05/08 06:51:00;;;;;;;12.20;11.20;;;18.20;54.10;;;;;;5070659;28;20454;-44
2022/05/08 06:53:26;;;;;;;14.27;13.00;;;18.20;54.40;;;;;;5054899;28;20487;-44
2022/05/08 06:55:53;;;;;;;14.07;12.77;;;18.30;54.50;;;;;;5063373;28;20443;-45
2022/05/08 06:58:20;;;;;;;13.57;12.47;;;18.30;54.70;;;;;;5064073;28;20800;-46
2022/05/08 07:03:30;;;;;;;14.37;13.07;;;18.40;55.20;;;;;;5055329;28;20499;-45
2022/05/08 07:05:57;;;;;;;13.30;12.27;;;18.40;55.50;;;;;;5051990;28;21251;-44
2022/05/08 07:08:23;;;;;;;14.63;13.33;;;18.50;55.50;;;;;;5055777;28;20275;-48
2022/05/08 07:10:49;;;;;;;15.40;13.60;;;18.50;55.80;;;;;;5060419;28;20599;-44
2022/05/08 07:13:15;;;;;;;13.50;12.40;;;18.60;55.80;;;;;;5062455;28;20478;-45
2022/05/08 07:15:41;;;;;;;14.83;13.43;;;18.80;55.70;;;;;;5057456;28;20899;-45
2022/05/08 07:18:07;;;;;;;14.10;12.80;;;18.90;55.30;;;;;;5064446;28;20539;-47
2022/05/08 07:20:33;;;;;;;14.10;12.90;;;19.10;55.20;;;;;;5065271;28;20237;-48
2022/05/08 07:22:59;;;;;;;13.83;12.63;;;19.20;54.50;;;;;;5065919;28;20608;-45
2022/05/08 07:25:24;;;;;;;14.40;13.10;;;19.40;54.30;;;;;;5063804;28;20434;-44
2022/05/08 07:27:51;;;;;;;14.10;12.90;;;19.40;54.00;;;;;;5056142;28;20977;-44
2022/05/08 07:30:17;;;;;;;13.93;12.73;;;19.60;54.00;;;;;;5065915;28;20532;-46
2022/05/08 07:32:44;;;;;;;13.83;12.60;;;19.80;53.80;;;;;;5056878;28;20543;-44
2022/05/08 07:37:54;;;;;;;14.17;12.87;;;20.00;53.40;;;;;;5063740;28;20445;-44
2022/05/08 07:40:20;;;;;;;14.57;13.37;;;20.10;53.20;;;;;;5064356;28;20434;-44
2022/05/08 07:42:46;;;;;;;14.57;13.37;;;20.20;52.60;;;;;;5063333;28;20203;-45
2022/05/08 07:45:11;;;;;;;15.17;13.80;;;20.10;52.40;;;;;;5069624;28;20241;-45
2022/05/08 07:47:37;;;;;;;13.80;12.63;;;20.00;52.40;;;;;;5056098;28;20196;-47
2022/05/08 07:50:03;;;;;;;14.30;13.00;;;20.20;52.40;;;;;;5064455;28;20995;-47
2022/05/08 07:52:29;;;;;;;14.00;12.83;;;20.30;52.40;;;;;;5069697;28;20442;-45
2022/05/08 07:54:55;;;;;;;15.00;13.80;;;20.40;52.10;;;;;;5060790;28;20454;-44
2022/05/08 07:57:20;;;;;;;13.50;12.43;;;20.60;51.80;;;;;;5052514;28;20454;-45
2022/05/08 07:59:47;;;;;;;13.90;12.70;;;20.70;52.50;;;;;;5062960;28;20294;-45
2022/05/08 08:02:13;;;;;;;12.83;11.73;;;20.80;52.00;;;;;;5062950;28;20243;-45
2022/05/08 08:04:39;;;;;;;13.87;12.77;;;20.90;52.00;;;;;;5055664;28;20434;-45
2022/05/08 08:07:04;;;;;;;13.40;12.30;;;21.00;51.50;;;;;;5056454;28;20242;-46
2022/05/08 08:09:30;;;;;;;13.80;12.60;;;21.10;51.10;;;;;;5059407;28;20192;-44
2022/05/08 08:11:55;;;;;;;13.73;12.30;;;21.20;50.80;;;;;;5053857;28;20192;-44
2022/05/08 08:14:22;;;;;;;14.77;12.60;;;21.40;50.80;;;;;;5058011;28;20223;-45
2022/05/08 08:16:48;;;;;;;13.90;12.70;;;21.40;51.10;;;;;;5053351;28;20237;-44
2022/05/08 08:19:14;;;;;;;14.20;12.90;;;21.40;51.10;;;;;;5054987;28;20431;-44
2022/05/08 08:21:39;;;;;;;14.43;13.03;;;21.50;50.80;;;;;;5070227;28;20214;-44
2022/05/08 08:24:05;;;;;;;13.33;12.23;;;21.50;50.80;;;;;;5065553;28;20279;-44
2022/05/08 08:26:31;;;;;;;14.43;13.27;;;21.70;50.90;;;;;;5064772;28;20235;-44
2022/05/08 08:28:56;;;;;;;13.60;12.40;;;21.90;51.40;;;;;;5058756;28;20243;-44
2022/05/08 08:31:22;;;;;;;14.10;13.00;;;22.10;51.30;;;;;;5051998;28;20548;-44
2022/05/08 08:33:48;;;;;;;12.17;11.17;;;22.10;50.90;;;;;;5049951;28;20304;-44
2022/05/08 08:36:14;;;;;;;12.90;11.80;;;22.30;50.90;;;;;;5055573;28;20196;-44
2022/05/08 08:38:40;;;;;;;12.83;11.73;;;22.40;50.50;;;;;;5059555;28;20431;-46
2022/05/08 08:41:07;;;;;;;14.50;13.07;;;22.60;50.10;;;;;;5052246;28;20197;-45
2022/05/08 08:49:16;;;;;;;14.00;12.83;;;22.90;49.60;;;;;;5058043;28;20884;-44
2022/05/08 08:51:43;;;;;;;15.23;13.93;;;22.80;49.60;;;;;;5062326;28;21032;-44
2022/05/08 08:54:09;;;;;;;13.83;12.63;;;22.80;49.70;;;;;;5053603;28;20479;-45
2022/05/08 08:56:34;;;;;;;13.60;12.37;;;22.90;49.70;;;;;;5064891;28;20448;-44
2022/05/08 08:59:00;;;;;;;14.87;13.67;;;23.00;49.70;;;;;;5064393;28;20200;-45
2022/05/08 09:01:25;;;;;;;14.07;12.87;;;23.10;49.60;;;;;;5057398;28;20228;-44
2022/05/08 09:03:56;;;;;;;14.90;13.70;;;23.30;49.50;;;;;;5056744;28;20226;-45
2022/05/08 09:06:21;;;;;;;14.10;13.00;;;23.50;49.20;;;;;;5063492;28;20193;-46
2022/05/08 09:08:47;;;;;;;14.20;12.87;;;23.60;49.00;;;;;;5061021;28;20966;-45
2022/05/08 09:11:32;;;;;;;12.73;11.73;;;23.70;49.20;;;;;;5065284;28;20274;-47
2022/05/08 09:13:57;;;;;;;12.13;11.23;;;23.80;49.00;;;;;;5056357;28;20235;-44
2022/05/08 09:16:23;;;;;;;13.13;12.00;;;23.90;49.30;;;;;;5063497;28;20517;-45
2022/05/08 09:18:48;;;;;;;11.30;10.30;;;24.10;48.40;;;;;;5055924;28;20196;-46
2022/05/08 09:24:10;;;;;;;12.20;11.33;;;24.30;48.10;;;;;;5066141;28;20254;-45
2022/05/08 09:26:36;;;;;;;12.03;10.83;;;24.20;48.30;;;;;;5066744;28;20514;-44
2022/05/08 09:29:03;;;;;;;11.20;10.30;;;24.30;48.40;;;;;;5071889;28;20515;-44
2022/05/08 09:31:41;;;;;;;11.97;10.80;;;24.40;48.10;;;;;;5061504;28;20485;-44
2022/05/08 09:34:07;;;;;;;13.40;12.40;;;24.50;47.50;;;;;;5061789;28;20493;-47
2022/05/08 09:36:33;;;;;;;11.93;10.80;;;24.60;47.00;;;;;;5063438;28;20544;-44
2022/05/08 09:39:00;;;;;;;12.93;11.80;;;24.70;46.50;;;;;;5064807;28;20438;-48
2022/05/08 09:41:28;;;;;;;12.00;10.90;;;24.80;46.70;;;;;;5063483;28;20187;-47
2022/05/08 09:44:07;;;;;;;13.33;11.17;;;24.90;46.80;;;;;;5056986;28;20512;-45
2022/05/08 09:46:43;;;;;;;12.30;11.30;;;25.10;46.50;;;;;;5055042;28;20443;-45
2022/05/08 09:49:11;;;;;;;12.10;11.10;;;25.00;46.30;;;;;;5059734;28;20446;-46
2022/05/08 09:51:38;;;;;;;10.40;9.40;;;25.10;46.00;;;;;;5067897;28;20528;-48
2022/05/08 09:54:04;;;;;;;12.13;10.90;;;25.20;46.70;;;;;;5069320;28;20504;-45
2022/05/08 09:56:31;;;;;;;9.73;9.00;;;25.10;46.10;;;;;;5070113;28;20434;-45
2022/05/08 09:58:57;;;;;;;8.20;7.40;;;25.10;44.20;;;;;;5064900;28;20204;-45
2022/05/08 10:01:24;;;;;;;8.53;7.83;;;24.80;41.80;;;;;;5059079;28;20532;-45
2022/05/08 10:03:51;;;;;;;13.13;6.90;;;24.00;44.00;;;;;;5058357;28;20456;-45
2022/05/08 10:06:17;;;;;;;10.40;7.63;;;23.90;42.60;;;;;;5064867;28;20439;-45
2022/05/08 10:08:45;;;;;;;8.33;6.53;;;23.90;42.80;;;;;;5059055;28;20442;-45
2022/05/08 10:14:03;;;;;;;6.80;6.27;;;24.00;42.20;;;;;;5055803;28;20628;-46
2022/05/08 10:16:47;;;;;;;7.33;6.17;;;24.00;42.10;;;;;;5065526;28;20984;-45
2022/05/08 10:19:32;;;;;;;6.87;6.27;;;24.40;41.50;;;;;;5055080;28;20458;-44
2022/05/08 10:22:10;;;;;;;7.03;6.47;;;24.40;41.40;;;;;;5046496;28;20446;-46
2022/05/08 10:24:54;;;;;;;6.83;6.17;;;24.70;41.90;;;;;;5058264;28;20450;-46
2022/05/08 10:27:22;;;;;;;6.90;6.17;;;24.80;40.80;;;;;;5063012;28;20984;-46
2022/05/08 10:29:50;;;;;;;6.97;6.20;;;25.00;40.60;;;;;;5055852;28;20462;-45
2022/05/08 10:32:31;;;;;;;7.23;6.63;;;25.30;40.60;;;;;;5059858;28;20450;-46
2022/05/08 10:35:19;;;;;;;7.13;6.53;;;25.40;40.10;;;;;;5063011;28;20453;-45
2022/05/08 10:37:51;;;;;;;6.23;5.73;;;25.40;38.90;;;;;;5061813;28;20449;-48
2022/05/08 10:40:23;;;;;;;6.37;5.87;;;25.30;39.80;;;;;;5068964;28;20868;-46
2022/05/08 10:42:56;;;;;;;7.10;6.50;;;25.00;40.10;;;;;;5067909;28;20461;-46
2022/05/08 10:45:34;;;;;;;6.63;6.23;;;24.70;40.40;;;;;;5063690;28;20458;-46
2022/05/08 10:48:01;;;;;;;8.70;6.83;;;24.90;41.10;;;;;;5059412;28;20450;-46
2022/05/08 10:50:27;;;;;;;6.67;6.07;;;25.00;40.80;;;;;;5054982;28;21253;-47
2022/05/08 10:52:53;;;;;;;6.80;6.30;;;25.30;40.30;;;;;;5061180;28;20482;-46
2022/05/08 10:55:18;;;;;;;7.30;6.70;;;25.60;40.00;;;;;;5062920;28;20502;-46
2022/05/08 10:57:46;;;;;;;7.30;6.70;;;25.90;40.00;;;;;;5061091;28;20191;-46
2022/05/08 11:00:16;;;;;;;7.27;6.70;;;25.70;39.80;;;;;;5061658;28;20196;-45
2022/05/08 11:02:51;;;;;;;8.10;6.40;;;25.70;39.00;;;;;;5052202;28;20497;-46
2022/05/08 11:05:21;;;;;;;7.40;6.80;;;25.90;39.90;;;;;;5057616;28;20452;-47
2022/05/08 11:08:00;;;;;;;8.20;7.40;;;26.20;39.40;;;;;;5062813;28;20841;-46
2022/05/08 11:10:30;;;;;;;7.73;7.00;;;26.00;38.80;;;;;;5054300;28;20540;-46
2022/05/08 11:13:08;;;;;;;7.10;6.50;;;25.70;39.30;;;;;;5055283;28;20501;-48
2022/05/08 11:15:38;;;;;;;10.03;6.80;;;25.70;39.40;;;;;;5051716;28;20565;-46
2022/05/08 11:18:15;;;;;;;8.40;7.67;;;25.70;40.30;;;;;;5054834;28;20477;-47
2022/05/08 11:20:57;;;;;;;7.47;6.87;;;26.10;41.20;;;;;;5058176;28;20809;-47
2022/05/08 11:23:25;;;;;;;7.60;7.00;;;26.50;41.00;;;;;;5055182;28;20450;-46
2022/05/08 11:25:56;;;;;;;7.47;6.83;;;26.80;39.40;;;;;;5057200;28;20507;-47
2022/05/08 11:28:23;;;;;;;6.90;6.20;;;27.00;38.90;;;;;;5051680;28;20439;-46
2022/05/08 11:30:50;;;;;;;7.80;6.23;;;27.00;39.70;;;;;;5059505;28;20442;-48
2022/05/08 11:36:06;;;;;;;6.90;6.20;;;27.20;40.00;;;;;;5055760;28;20627;-46
2022/05/08 11:38:45;;;;;;;7.97;7.30;;;27.30;39.80;;;;;;5050641;28;20471;-50
2022/05/08 11:41:15;;;;;;;7.30;6.57;;;27.60;39.40;;;;;;5060192;28;20828;-47
2022/05/08 11:43:43;;;;;;;6.57;6.07;;;27.90;39.10;;;;;;5066361;28;21002;-48
2022/05/08 11:46:15;;;;;;;6.83;6.20;;;28.00;38.50;;;;;;5067017;28;20446;-47
2022/05/08 11:48:46;;;;;;;6.70;6.20;;;28.00;38.50;;;;;;5053754;28;20443;-48
2022/05/08 11:51:13;;;;;;;6.80;6.20;;;28.10;36.90;;;;;;5063272;28;20438;-47
2022/05/08 11:53:52;;;;;;;6.83;6.23;;;28.10;38.10;;;;;;5057572;28;20489;-49
2022/05/08 11:56:32;;;;;;;6.03;5.63;;;28.20;37.90;;;;;;5057700;28;20538;-46
2022/05/08 11:59:03;;;;;;;6.67;6.17;;;28.30;37.90;;;;;;5060998;28;20461;-45
2022/05/08 12:01:34;;;;;;;8.70;6.23;;;28.30;38.00;;;;;;5067910;28;20543;-47
2022/05/08 12:04:26;;;;;;;7.00;6.33;;;28.30;37.80;;;;;;5052650;28;20473;-47
2022/05/08 12:07:13;;;;;;;5.90;5.50;;;28.50;36.90;;;;;;5058705;28;20466;-49
2022/05/08 12:09:49;;;;;;;5.30;4.90;;;28.60;36.00;;;;;;5061216;28;20445;-49
2022/05/08 12:12:21;;;;;;;5.93;5.50;;;28.70;36.60;;;;;;5062519;28;20980;-46
2022/05/08 12:14:47;;;;;;;5.90;5.40;;;28.90;36.60;;;;;;5063220;28;21936;-48
2022/05/08 12:17:13;;;;;;;5.77;5.27;;;28.80;36.10;;;;;;5061929;28;20477;-47
2022/05/08 12:19:58;;;;;;;6.50;6.10;;;28.70;35.50;;;;;;5056328;28;20203;-44
2022/05/08 12:22:26;;;;;;;5.60;5.13;;;28.80;37.10;;;;;;5062492;28;20241;-49
2022/05/08 12:24:52;;;;;;;5.47;5.07;;;28.80;35.40;;;;;;5058047;28;20447;-45
2022/05/08 12:27:19;;;;;;;5.87;5.30;;;28.90;35.40;;;;;;5058503;28;20451;-48
2022/05/08 12:29:46;;;;;;;8.30;5.50;;;28.80;34.00;;;;;;5065091;28;20927;-45
2022/05/08 12:32:13;;;;;;;5.60;4.90;;;28.50;35.20;;;;;;5059810;28;20447;-49
2022/05/08 12:34:41;;;;;;;5.47;5.03;;;28.70;34.80;;;;;;5074564;28;20478;-49
2022/05/08 12:37:07;;;;;;;4.90;4.50;;;28.60;32.70;;;;;;5060332;28;20451;-47
2022/05/08 12:39:33;;;;;;;4.63;4.33;;;28.80;33.20;;;;;;5055809;28;20446;-48
2022/05/08 12:41:59;;;;;;;4.33;4.00;;;28.60;33.10;;;;;;5064976;28;21187;-49
2022/05/08 12:44:24;;;;;;;5.27;4.50;;;28.70;33.70;;;;;;5058039;28;20187;-48
2022/05/08 12:46:50;;;;;;;4.30;4.00;;;28.70;32.30;;;;;;5053411;28;20207;-46
2022/05/08 12:49:16;;;;;;;4.70;4.30;;;28.60;33.00;;;;;;5059040;28;20280;-49
2022/05/08 12:51:42;;;;;;;4.63;4.23;;;28.40;31.70;;;;;;5064906;28;20653;-47
2022/05/08 12:54:09;;;;;;;4.87;4.47;;;28.30;32.50;;;;;;5062457;28;20215;-45
2022/05/08 12:56:34;;;;;;;5.03;4.30;;;28.30;32.70;;;;;;5070426;28;20433;-49
2022/05/08 13:01:46;;;;;;;4.93;3.80;;;28.30;32.00;;;;;;5068075;28;20233;-49
2022/05/08 13:04:12;;;;;;;4.90;4.60;;;28.10;32.20;;;;;;5073291;28;20812;-51
2022/05/08 13:06:38;;;;;;;6.17;4.30;;;27.90;31.60;;;;;;5074119;28;20422;-49
2022/05/08 13:09:06;;;;;;;4.80;4.40;;;27.80;32.00;;;;;;5073083;28;20586;-47